Timeline UpdatesTrip UpdatesNews PostsPvt PostsTravel TipsAdmin PostsConv PostsFollowed PostsChat RequestsBlog PostsPNR Posts

Disclaimer
Search
 
 
Tue Jul 29, 2014 04:02:37 ISTHomeTrainsΣChainsAtlasPNRForumGalleryNewsFAQTripsMembersLoginFeedback
No Recent News for this Train
Other Trains in the News **new
Latest...
-
Tue Feb 11, 2014 (11:47AM)
⇐ Return Journey: Train# 13019

13020/Bagh Express

Apr 15 2014 (7:52AM)
Change Departure Station:
Change Arrival Station:
Post a Train Travel TipPost a Train Travel Tip **new
Post a Comment/Question/Picture/VideoPost a Comment/Question/Picture/Video
Pantry/Catering
✕ NO Pantry Car
✓ Catering Avbl
Loco/Rake Reversals
RMU/Rampur Junction (3); LJN/Lucknow Junction (6);
RSA - Rake Sharing
Rake/Coach Composition
LOCO-SLR-GS-GS-A1-B1-S7-S6-S5-S4-S3-S2-S1-GS-GS-GS-SLR
Loco
IZN WDP-4D (KGM-BJU); HWH WAP-4 (BJU-HWH)
News    PNR    Forum    Time-Table    Availability    Fare Chart    Map    Arr/Dep History    Trips    Gallery    ΣChains    X/O    Timeline    
Travel Time: 8h 50m    11 halts    Distance: 268 km    Avg Speed: 30 km/hr
Type: Mail/Express
Zone: ER/Eastern
Departs @ 20:30 (Avg 2h 19m late)
Platform# 2
SMTWTFS
Muzaffarpur Junction/MFP 
Arrives @ 05:20 +1 night (Avg 2h 4m late)
Platform# ???
SMTWTFS
Madhupur Junction/MDP 

11 halts. 50 intermediate Stations between Muzaffarpur Junction and Madhupur Junction

Show ALL intermediate Stations  Show Old Time-Table

#CodeStation NameX/OArrivesAvgDepartsAvgHaltPFDay#KmSpeedElevZoneAddress
1KGMKathgodam (3)  -21:55+211-956.422520mNERKathgodam, Uttarakhand
2HDWHaldwani (3)  22:11+522:13+102m11-950.531443mNERHaldwani, Uttarakhand
3LKULal Kuan Junction (4)  22:45+622:50+75m--1-934.151262mNERLalkuan, Uttarakhand
4HLDDHaldi Road  22:59+923:01+92m--1-926.560236mNERNH 87, Uttarakhand
5RUPCRudrapur City (2)  23:15+1023:17+132m--1-912.564208mNERUdham Singh Nagar, Uttarakhand
6BLQRBilaspur Road (1)  23:34+1123:36+112m11-894.537196mNERRampur, Uttar Pradesh
7RMURampur Junction (3)X00:20+1300:45+2125m--2-867.671190mNRRampur, Uttar Pradesh
8BEBareilly Junction (4)X  01:38+3101:46+328m12-804.664174mNRBareilly, Uttar Pradesh
9SPNShahjahanpur Junction (3)  02:52+2502:57+245m--2-734.155156mNRShahjahanpur, Uttar Pradesh
10ROZARoza Junction (4)X  03:05+2703:07+372m--2-726.869156mNRShahjahanpur, Uttar Pradesh
11HRIHardoi (5)X03:55+3203:57+322m32-671.251146mNRHardoi, Uttar Pradesh
12LJNLucknow Junction (6)X05:55+2306:20+2425m12-570.114126mNERLucknow, Uttar Pradesh
13BNZBadshahnagar (2)  07:08+1307:10+162m12-559.037116mNERLucknow, Uttar Pradesh
14BBKBarabanki Junction (4)X  07:50+1607:54+164m--2-534.465122mNRPin-225001, Uttar Pradesh
15JLDJarwal Road (2)  08:34+2108:36+232m--2-491.271112mNERBehraich, Uttar Pradesh
16GDGonda Junction (3)X  09:15+3609:25+3210m22-445.176110mNERGonda 271001, Uttar Pradesh
17BSTBasti (4)  10:35+3310:40+335m--2-356.78190mNERBasti 272001, Uttar Pradesh
18KLDKhalilabad (3)X  11:02+3811:04+382m--2-327.12786mNERKhalilabad- 272175, Uttar Pradesh
19GKPGorakhpur Junction (10)X  12:20+1412:40+1620m--2-293.26484mNERGorakhpur 273001, Uttar Pradesh
20CCChauri Chaura (2)  13:03+4613:05+512m--2-268.86584mNERGorakhpur- PinCode:- 273201, Uttar Pradesh
21DEOSDeoria Sadar (3)  13:28+1:0713:30+1:142m--2-244.15079mNERDeoria- 274001, Uttar Pradesh
22BTTBhatni Junction (5)  13:55+1:1614:00+1:185m--2-223.35973mNERDeoria, Uttar Pradesh
23BHTRBhatpar Rani (2)X  14:13+1:2114:15+1:212m--2-210.56173mNERDeoria, Uttar Pradesh
24BTKBankata (2)  14:23+1:2314:25+1:232m--2-202.43573mNERDeoria, Uttar Pradesh
25MWMairwa (2)X  14:36+1:2014:38+1:212m22-195.93173mNERMairwa, Bihar
26ZRDEJiradei (2)X  14:59+1:1415:01+1:142m--2-184.94469mNERSiwan, Bihar
27SVSiwan Junction (4)X  15:15+1:1115:25+1:0610m--2-174.67170mNERSiwan, Bihar
28DDADuraundha Junction (3)  15:40+1:1315:42+1:132m--2-156.85464mNERDistt: Siwan, Bihar
29CWChainwa (2)  15:51+1:1315:53+1:132m--2-148.62463mNERSiwan, Bihar
30EKMAEkma (3)X  16:11+1:0416:13+1:042m--2-141.32664mNERSaran, Bihar
31DDPDaudpur (2)O  16:33+5416:35+542m--2-132.72359mNERChhapra, Bihar
32CPRChhapra Junction (6)  17:25+3917:35+4810m--2-113.46258mNERDistt: Saran, Bihar
33DGADighwara (2)X  18:05+1:1218:07+1:142m--2-82.57160mECR06158-281240, Bihar
34NYONayagaon (2)  18:17+1:1918:19+1:202m--2-70.73453mECRNayagaon Sarai, Bihar
35SEESonpur Junction (4)X  18:39+1:2318:47+1:418m--2-59.32556mECRSaran, Bihar
36HJPHajipur Junction (3)  19:00+1:4119:02+1:522m--2-53.87955mECR06224-272230, Bihar
37BNRBhagwanpur (2)  19:17+2:0219:19+2:052m12-34.26260mECRBhagwanpur, Bihar
38GRLGoraul (2)X  19:27+2:0819:29+2:092m12-25.93057mECRVAISHALI, Bihar
39MFP»Muzaffarpur Junction (6)»X  20:20+2:1620:30+2:1910m220.07257mECRMuzaffarpur, Bihar
40DOLDholi (2)  20:51+2:2920:53+2:292m--225.16752mECRDistt. Muzaffarpur, Bihar
41KRBPKhudiram B Pusa  21:05+2:3821:07+2:402m--238.56352mECRDistt. Samastipur, Bihar
42KPGMKarpurigram (3)X  21:14+2:4321:16+2:442m--245.81651mECRState Highway 49, Bihar
43SPJSamastipur Junction (9)X  21:40+2:3321:50+2:3210m--252.17055mECRSamastipur, Bihar
44DSSDalsingh Sarai (2)  22:10+2:3722:12+2:382m2275.36049mECR06278-221238, Bihar
45BCABachwara JunctionO  22:23+2:4022:25+2:422m--286.31849mECRBegusarai, Bihar
46BJUBarauni Junction (9)23:20+2:2800:10+2:1450m--2102.72849mECRBegusarai, Bihar
47KIULKiul Junction (5)  01:35+2:4501:40+2:455m--3141.93853mECRDist. Lakhisarai, Bihar
48JAJJhajha (4)X  03:05+2:1403:15+2:1510m--3195.270143mECRJhajha, Bihar
49STLSimultala (2)X  03:31+2:2103:33+2:232m--3213.966247mERSimultala, Bihar
50JSMEJasidih Junction (5)X  03:56+2:4104:01+2:455m--3239.322271mERJasidih, Jharkhand
51MDP•Madhupur Junction (4)•X  05:20+2:0405:24+2:054m--3268.463254mER06432-224478, Jharkhand
52VDSVidyasagar (2)X  05:47+2:0305:49+2:042m23292.645250mERJamtara, Jharkhand
53JMTJamtara (2)  06:13+1:5806:15+1:582m23310.545201mERJamtara, Jharkhand
54CRJChittaranjan (3)  06:34+1:5506:36+1:572m23324.839182mERMihijam, Jharkhand
55RNPRRupnarayanpur (3)  06:43+1:5406:45+1:542m13329.311191mERChittaranjan, West Bengal
56STNSitarampur Junction (5)XO  07:48+1:1407:50+1:232m33341.113139mERG T Rd Before Asansol, West Bengal
57ASNAsansol Junction (7)O  08:30+1:0108:45+1:0215m--3349.972113mERDist - bardhaman, West Bengal
58RNGRaniGanj (4)  09:00+1:0909:02+1:092m--3368.04092mERRaniganj, West Bengal
59UDLAndal Junction (6)X  09:13+1:0609:15+1:062m--3375.37386mERAndal, West Bengal
60DGRDurgapur (5)X  09:29+1:0809:31+1:082m--3392.38571mERDurgapur, West Bengal
61PANPanagarh (4)X  09:42+1:1309:44+1:122m--3407.96170mERKaksa, West Bengal
62BWNBarddhaman Junction (8)X  10:31+1:0410:36+1:045m--3455.85934mERDist - Barddhaman, West Bengal
63BDCBandel Junction (7)  11:44+1:0011:49+1:015m--3523.14714mERdist - HOOGHLY, West Bengal
64HWHKolkata Howrah Junction (23)  12:40+1:01-133562.7-10mERHowrah 711101, West Bengal
Scroll to Top
Scroll to Bottom